East Kilbride, United Kingdom
Current Conditions -  °F | °C
As of 9:50 AM on Saturday 20 Dec 2014 (Local Time) from EGPF Reporting Station
Few Clouds Few Clouds  
Wind Chill: 34°   Ceiling: Unl
Heat Index: 43°   Visibility: 6mi
Dew Point: 37°   Wind: 20mph
Humidity: 81%   Direction: 280°W
Pressure: 30.03"   Gusts: NA
Location:  55.77°N, 4.18°W
Report Text: EGPF 200950Z AUTO 28017KT 9999 FEW028/// //////TCU 06/03 Q1017
Loading
Personal Weather Stations






























Interactive Weather Map New forecast layout! Learn more

10-Day Weather Forecast

Advertisements
Track Severe Weather on mobile